Time;durP1;ratioP1;P1;durP2;ratioP2;P2;SDS_P1;SDS_P2;PMS_P1;PMS_P2;Temp;Humidity;BMP_temperature;BMP_pressure;BME280_temperature;BME280_humidity;BME280_pressure;Samples;Min_cycle;Max_cycle;Signal;HPM_P1;HPM_P2
2022/06/07 00:00:08;;;;;;;4.47;2.30;;;;;;;17.47;66.40;96673.91;4940793;29;20466;-87
2022/06/07 00:02:36;;;;;;;3.00;1.75;;;;;;;17.46;65.68;96668.84;4941345;29;20076;-80
2022/06/07 00:05:04;;;;;;;4.22;2.20;;;;;;;17.46;66.73;96666.22;4941515;29;20059;-81
2022/06/07 00:07:32;;;;;;;2.10;1.50;;;;;;;17.44;65.08;96658.50;4940898;29;20130;-83
2022/06/07 00:10:01;;;;;;;2.08;1.80;;;;;;;17.44;66.34;96668.25;4941066;29;20138;-86
2022/06/07 00:12:29;;;;;;;1.73;1.63;;;;;;;17.42;65.16;96657.94;4941290;29;20059;-83
2022/06/07 00:14:57;;;;;;;5.57;1.85;;;;;;;17.42;65.24;96665.84;4941559;29;20089;-83
2022/06/07 00:17:24;;;;;;;2.28;2.00;;;;;;;17.41;66.17;96664.25;4942072;29;20090;-85
2022/06/07 00:19:52;;;;;;;2.92;2.20;;;;;;;17.39;65.84;96673.41;4943563;29;20055;-86
2022/06/07 00:22:20;;;;;;;3.78;2.03;;;;;;;17.37;67.16;96673.63;4943528;29;20083;-81
2022/06/07 00:24:47;;;;;;;3.13;1.80;;;;;;;17.36;67.16;96677.31;4945027;29;20462;-84
2022/06/07 00:27:16;;;;;;;3.13;2.08;;;;;;;17.35;68.34;96677.50;4946195;29;20055;-81
2022/06/07 00:29:46;;;;;;;2.20;2.08;;;;;;;17.36;69.25;96687.03;4946195;29;20079;-83
2022/06/07 00:32:17;;;;;;;6.95;2.20;;;;;;;17.34;68.83;96689.06;4946255;29;20056;-83
2022/06/07 00:34:45;;;;;;;2.03;1.80;;;;;;;17.33;67.85;96682.22;4945679;29;20090;-81
2022/06/07 00:37:13;;;;;;;2.88;2.25;;;;;;;17.34;66.89;96684.63;4945315;29;20059;-81
2022/06/07 00:39:40;;;;;;;2.50;1.70;;;;;;;17.35;67.37;96686.22;4946439;29;20135;-81
2022/06/07 00:42:08;;;;;;;2.45;1.80;;;;;;;17.37;68.62;96686.00;4946588;29;20079;-83
2022/06/07 00:44:41;;;;;;;3.55;1.90;;;;;;;17.36;68.66;96687.03;4948536;29;20071;-81
2022/06/07 00:47:11;;;;;;;2.13;1.97;;;;;;;17.35;68.51;96686.22;4949216;29;20075;-83
2022/06/07 00:49:45;;;;;;;2.03;1.83;;;;;;;17.36;68.83;96682.56;4949212;29;20126;-79
2022/06/07 00:52:13;;;;;;;3.80;1.52;;;;;;;17.40;69.95;96682.91;4948442;29;20088;-80
2022/06/07 00:54:41;;;;;;;1.70;1.60;;;;;;;17.39;68.24;96686.59;4946021;29;20142;-79
2022/06/07 00:57:09;;;;;;;1.73;1.58;;;;;;;17.37;68.31;96678.09;4942897;29;20427;-81
2022/06/07 00:59:38;;;;;;;1.75;1.65;;;;;;;17.37;68.63;96686.81;4942529;29;20051;-79
2022/06/07 01:02:07;;;;;;;2.25;1.95;;;;;;;17.39;68.70;96686.59;4942389;29;20115;-83
2022/06/07 01:04:35;;;;;;;4.28;1.60;;;;;;;17.39;68.07;96681.31;4943052;29;20119;-83
2022/06/07 01:12:33;;;;;;;2.08;1.88;;;;;;;17.48;70.35;96682.63;4949184;29;20059;-82
2022/06/07 01:15:03;;;;;;;2.13;1.92;;;;;;;17.52;69.10;96673.22;4948978;29;20123;-82
2022/06/07 01:17:30;;;;;;;5.32;2.20;;;;;;;17.54;67.34;96670.38;4949099;29;20096;-79
2022/06/07 01:19:58;;;;;;;3.30;2.00;;;;;;;17.57;66.08;96669.91;4948333;29;20115;-79
2022/06/07 01:22:27;;;;;;;2.67;1.80;;;;;;;17.60;67.03;96686.13;4947382;29;20120;-81
2022/06/07 01:24:55;;;;;;;3.25;1.77;;;;;;;17.64;68.29;96681.16;4947193;29;20070;-81
2022/06/07 01:27:23;;;;;;;3.78;2.22;;;;;;;17.62;67.50;96681.41;4946737;29;20056;-81
2022/06/07 01:29:50;;;;;;;2.28;2.08;;;;;;;17.63;67.76;96680.38;4946411;29;20221;-81
2022/06/07 01:32:18;;;;;;;2.50;2.30;;;;;;;17.63;68.21;96672.47;4945621;29;20052;-82
2022/06/07 01:34:47;;;;;;;4.47;2.15;;;;;;;17.61;67.16;96671.88;4946976;29;20494;-79
2022/06/07 01:37:16;;;;;;;5.32;2.22;;;;;;;17.60;68.13;96678.19;4949231;29;20138;-82
2022/06/07 01:42:31;;;;;;;2.42;2.05;;;;;;;17.66;69.54;96666.72;4951644;29;20088;-83
2022/06/07 01:44:58;;;;;;;3.80;2.00;;;;;;;17.65;66.36;96670.41;4951598;29;20051;-83
2022/06/07 01:47:28;;;;;;;3.08;2.00;;;;;;;17.68;68.57;96671.78;4953448;29;20055;-82
2022/06/07 01:49:56;;;;;;;3.28;2.22;;;;;;;17.71;67.47;96674.00;4952196;29;20060;-81
2022/06/07 01:52:26;;;;;;;2.72;2.00;;;;;;;17.69;67.02;96668.13;4951575;29;20044;-81
2022/06/07 01:54:55;;;;;;;3.90;1.92;;;;;;;17.68;66.21;96669.94;4951591;29;20071;-80
2022/06/07 01:57:23;;;;;;;3.72;1.75;;;;;;;17.68;67.28;96662.03;4950438;29;20112;-83
2022/06/07 01:59:51;;;;;;;2.97;2.08;;;;;;;17.69;67.66;96660.22;4950631;29;20055;-79
2022/06/07 02:02:22;;;;;;;3.53;1.60;;;;;;;17.69;66.32;96644.38;4950199;29;20070;-81
2022/06/07 02:04:49;;;;;;;1.60;1.50;;;;;;;17.67;68.16;96643.81;4950018;29;20048;-80
2022/06/07 02:07:19;;;;;;;2.47;1.60;;;;;;;17.69;70.28;96649.66;4949250;29;20079;-79
2022/06/07 02:09:47;;;;;;;1.50;1.40;;;;;;;17.66;67.31;96650.91;4948405;29;20071;-82
2022/06/07 02:12:16;;;;;;;5.07;1.40;;;;;;;17.63;65.51;96634.75;4970818;23;20074;-78
2022/06/07 02:14:43;;;;;;;2.60;1.40;;;;;;;17.62;68.30;96633.94;4956145;29;20246;-78
2022/06/07 02:17:11;;;;;;;1.67;1.58;;;;;;;17.61;67.48;96637.59;4956684;29;20071;-78
2022/06/07 02:19:39;;;;;;;3.65;2.15;;;;;;;17.59;66.64;96631.72;4955504;29;20051;-78
2022/06/07 02:22:07;;;;;;;2.78;1.40;;;;;;;17.59;65.93;96636.22;4953987;29;20114;-78
2022/06/07 02:24:35;;;;;;;1.17;1.10;;;;;;;17.56;65.97;96645.38;4954027;29;20047;-78
2022/06/07 02:27:06;;;;;;;2.42;1.30;;;;;;;17.57;67.22;96646.19;4954727;29;20441;-78
2022/06/07 02:29:39;;;;;;;3.30;1.30;;;;;;;17.56;65.98;96650.66;4954972;29;20115;-78
2022/06/07 02:32:11;;;;;;;4.10;1.40;;;;;;;17.57;67.43;96648.81;4955670;29;20306;-78
2022/06/07 02:34:41;;;;;;;1.88;1.23;;;;;;;17.57;66.43;96646.97;4957097;29;20068;-78
2022/06/07 02:37:09;;;;;;;1.90;1.20;;;;;;;17.56;67.48;96642.75;4956181;29;20048;-78
2022/06/07 02:39:38;;;;;;;1.67;1.08;;;;;;;17.51;65.81;96637.31;4954463;29;20107;-78
2022/06/07 02:42:08;;;;;;;4.57;1.30;;;;;;;17.48;65.87;96638.56;4954943;29;20059;-78
2022/06/07 02:44:37;;;;;;;1.67;1.10;;;;;;;17.46;66.69;96632.72;4955735;29;20052;-78
2022/06/07 02:47:05;;;;;;;1.52;1.42;;;;;;;17.46;66.77;96634.56;4954336;29;20066;-78
2022/06/07 02:49:32;;;;;;;1.70;1.15;;;;;;;17.45;67.86;96627.69;4955104;29;20044;-78
2022/06/07 02:52:00;;;;;;;3.80;1.60;;;;;;;17.41;68.28;96634.44;4954608;29;20047;-78
2022/06/07 02:54:36;;;;;;;3.13;1.23;;;;;;;17.38;67.67;96640.16;4954666;29;20048;-78
2022/06/07 02:57:05;;;;;;;1.80;1.70;;;;;;;17.37;69.44;96636.72;4955250;29;20063;-78
2022/06/07 02:59:32;;;;;;;1.77;1.58;;;;;;;17.37;68.90;96638.56;4957313;28;20084;-77
2022/06/07 03:02:01;;;;;;;1.10;1.10;;;;;;;17.36;67.71;96629.00;4960972;28;20072;-77
2022/06/07 03:04:29;;;;;;;2.35;1.52;;;;;;;17.34;66.69;96625.78;4961208;28;20027;-77
2022/06/07 03:06:57;;;;;;;1.67;1.33;;;;;;;17.31;67.14;96627.06;4954097;29;20048;-77
2022/06/07 03:09:25;;;;;;;2.17;1.50;;;;;;;17.29;68.44;96629.94;4953111;29;20062;-78
2022/06/07 03:11:52;;;;;;;1.92;1.65;;;;;;;17.28;69.09;96628.31;4953635;29;20140;-78
2022/06/07 03:14:20;;;;;;;1.30;1.20;;;;;;;17.28;68.44;96625.66;4954285;29;20059;-78
2022/06/07 03:16:53;;;;;;;2.15;1.60;;;;;;;17.27;68.25;96626.72;4956233;29;20051;-78
2022/06/07 03:19:22;;;;;;;1.67;1.48;;;;;;;17.27;68.30;96632.00;4956827;29;20084;-78
2022/06/07 03:21:50;;;;;;;1.55;1.10;;;;;;;17.26;68.63;96635.63;4955735;29;20079;-78
2022/06/07 03:24:17;;;;;;;1.67;1.58;;;;;;;17.24;69.65;96637.69;4956275;29;20084;-78
2022/06/07 03:26:45;;;;;;;1.98;1.60;;;;;;;17.26;70.42;96632.19;4956500;29;20076;-78
2022/06/07 03:29:13;;;;;;;1.70;1.33;;;;;;;17.27;70.50;96632.00;4954731;29;20044;-78
2022/06/07 03:31:40;;;;;;;1.50;1.40;;;;;;;17.26;71.28;96635.63;4955512;29;20044;-78
2022/06/07 03:34:08;;;;;;;3.25;2.05;;;;;;;17.26;70.96;96634.84;4956667;29;20063;-78
2022/06/07 03:36:37;;;;;;;1.35;1.30;;;;;;;17.23;69.20;96630.81;4955613;29;20053;-78
2022/06/07 03:39:08;;;;;;;1.95;1.20;;;;;;;17.22;71.94;96629.19;4957592;29;20063;-78
2022/06/07 03:41:37;;;;;;;5.32;1.90;;;;;;;17.17;70.32;96620.38;4956809;29;20036;-78
2022/06/07 03:44:06;;;;;;;2.03;1.25;;;;;;;17.12;70.58;96625.47;4957621;28;20458;-78
2022/06/07 03:46:34;;;;;;;2.50;1.42;;;;;;;17.09;70.38;96637.28;4959965;28;20468;-78
2022/06/07 03:49:04;;;;;;;1.52;1.42;;;;;;;17.08;72.46;96633.03;4960019;28;20086;-78
2022/06/07 03:51:32;;;;;;;2.17;1.70;;;;;;;17.12;72.25;96639.47;4955309;29;20048;-78
2022/06/07 03:54:02;;;;;;;2.38;1.50;;;;;;;17.16;72.59;96639.81;4955686;29;20047;-78
2022/06/07 03:56:30;;;;;;;3.10;1.67;;;;;;;17.12;70.51;96639.47;4955747;29;20079;-78
2022/06/07 03:58:58;;;;;;;1.52;1.40;;;;;;;17.11;69.92;96637.06;4955065;29;20075;-78
2022/06/07 04:01:27;;;;;;;3.35;1.65;;;;;;;17.08;70.56;96643.59;4954059;29;20090;-78
2022/06/07 04:03:56;;;;;;;1.50;1.40;;;;;;;17.09;71.97;96642.53;4954555;29;20107;-78
2022/06/07 04:06:26;;;;;;;2.63;1.70;;;;;;;17.06;71.33;96640.38;4955205;29;20083;-77
2022/06/07 04:08:55;;;;;;;2.15;1.38;;;;;;;17.04;70.43;96643.22;4955581;29;20107;-78
2022/06/07 04:11:26;;;;;;;3.03;1.48;;;;;;;17.07;71.69;96647.22;4956690;29;20413;-78
2022/06/07 04:13:55;;;;;;;1.40;1.30;;;;;;;17.11;71.99;96643.13;4955665;29;20059;-78
2022/06/07 04:16:25;;;;;;;1.80;1.63;;;;;;;17.11;71.54;96648.41;4954601;29;20115;-78
2022/06/07 04:18:53;;;;;;;1.85;1.65;;;;;;;17.11;71.25;96655.50;4955005;29;20071;-78
2022/06/07 04:21:22;;;;;;;3.38;1.60;;;;;;;17.06;70.88;96651.72;4953176;29;20425;-78
2022/06/07 04:23:50;;;;;;;3.40;1.65;;;;;;;17.05;71.24;96654.56;4953524;29;20051;-78
2022/06/07 04:26:20;;;;;;;1.08;1.08;;;;;;;17.02;68.81;96655.00;4952932;29;20111;-78
2022/06/07 04:28:49;;;;;;;4.40;1.40;;;;;;;16.97;68.78;96657.50;4951332;29;20051;-78
2022/06/07 04:31:19;;;;;;;1.38;1.27;;;;;;;16.98;69.37;96649.38;4955182;29;20088;-78
2022/06/07 04:33:48;;;;;;;3.30;1.88;;;;;;;16.97;70.63;96646.97;4955029;29;20055;-78
2022/06/07 04:36:18;;;;;;;3.45;1.48;;;;;;;16.97;71.02;96641.69;4957035;29;20078;-78
2022/06/07 04:38:47;;;;;;;2.25;1.85;;;;;;;16.94;71.59;96637.66;4953811;29;20063;-78
2022/06/07 04:41:17;;;;;;;2.40;1.38;;;;;;;16.87;68.43;96644.84;4954597;29;20063;-78
2022/06/07 04:43:48;;;;;;;3.03;1.48;;;;;;;16.87;71.53;96643.00;4955110;29;20057;-79
2022/06/07 04:46:18;;;;;;;2.67;1.38;;;;;;;16.85;69.93;96650.31;4945343;29;20059;-78
2022/06/07 04:48:48;;;;;;;1.25;1.15;;;;;;;16.81;70.18;96646.50;4948546;29;20063;-78
2022/06/07 04:51:19;;;;;;;2.55;1.95;;;;;;;16.79;70.50;96653.81;4952950;29;20082;-79
2022/06/07 04:53:47;;;;;;;2.97;1.63;;;;;;;16.79;70.03;96653.00;4949048;28;20056;-77
2022/06/07 04:56:18;;;;;;;1.85;1.50;;;;;;;16.80;71.35;96646.75;4951948;28;20056;-78
2022/06/07 04:58:45;;;;;;;1.33;1.23;;;;;;;16.82;71.82;96648.13;4940038;29;20071;-78
2022/06/07 05:01:18;;;;;;;1.25;1.15;;;;;;;16.85;72.59;96650.31;4948233;29;20052;-77
2022/06/07 05:03:46;;;;;;;2.58;1.45;;;;;;;16.86;71.52;96657.22;4933277;29;20068;-78
2022/06/07 05:06:19;;;;;;;1.58;1.25;;;;;;;16.87;70.58;96664.06;4934365;29;20068;-78
2022/06/07 05:08:47;;;;;;;1.52;1.30;;;;;;;16.85;69.72;96660.84;4936693;29;20120;-78
2022/06/07 05:11:16;;;;;;;3.00;1.00;;;;;;;16.81;70.58;96657.03;4956425;29;20067;-79
2022/06/07 05:13:43;;;;;;;2.55;1.10;;;;;;;16.82;70.05;96660.50;4941020;29;20084;-78
2022/06/07 05:16:12;;;;;;;2.45;2.08;;;;;;;16.79;70.42;96667.00;4952811;29;20054;-78
2022/06/07 05:18:41;;;;;;;1.92;1.60;;;;;;;16.82;71.86;96663.94;4959870;28;20145;-78
2022/06/07 05:21:10;;;;;;;1.20;1.10;;;;;;;16.84;72.93;96675.06;4947339;29;20076;-78
2022/06/07 05:23:38;;;;;;;3.85;1.60;;;;;;;16.85;72.71;96679.28;4943963;29;20091;-79
2022/06/07 05:26:09;;;;;;;4.03;1.00;;;;;;;16.82;69.27;96690.28;4955355;28;20035;-79
2022/06/07 05:28:41;;;;;;;1.25;1.15;;;;;;;16.78;69.70;96681.19;4960372;28;20071;-78
2022/06/07 05:31:08;;;;;;;3.25;1.20;;;;;;;16.78;70.40;96681.19;4953056;29;20469;-79
2022/06/07 05:33:36;;;;;;;1.20;1.10;;;;;;;16.78;71.45;96683.81;4936103;29;20096;-79
2022/06/07 05:36:07;;;;;;;3.15;1.20;;;;;;;16.80;72.65;96691.53;4944081;29;20072;-78
2022/06/07 05:38:35;;;;;;;1.70;1.20;;;;;;;16.79;71.52;96689.88;4941369;29;20048;-79
2022/06/07 05:41:03;;;;;;;1.20;1.10;;;;;;;16.80;72.51;96692.34;4930163;29;20506;-79
2022/06/07 05:43:31;;;;;;;1.25;1.15;;;;;;;16.80;71.27;96694.16;4924639;29;20048;-79
2022/06/07 05:46:00;;;;;;;1.52;1.40;;;;;;;16.77;71.64;96695.38;4940699;29;20059;-79
2022/06/07 05:48:33;;;;;;;3.30;1.60;;;;;;;16.78;70.78;96691.72;4940865;29;20099;-79
2022/06/07 05:51:01;;;;;;;6.80;4.18;;;;;;;16.79;70.58;96689.88;4937392;29;20060;-79
2022/06/07 05:53:30;;;;;;;9.48;4.85;;;;;;;16.79;68.31;96700.41;4948278;29;20064;-78
2022/06/07 05:55:57;;;;;;;52.97;35.00;;;;;;;16.77;69.43;96695.38;4940263;29;20067;-79
2022/06/07 05:58:26;;;;;;;12.55;8.70;;;;;;;16.79;70.34;96701.25;4931190;29;20076;-79
2022/06/07 06:01:01;;;;;;;2.28;1.48;;;;;;;16.79;70.77;96695.97;4936348;29;20505;-79
2022/06/07 06:03:28;;;;;;;3.40;1.42;;;;;;;16.79;70.70;96693.34;4939050;29;20112;-79
2022/06/07 06:05:56;;;;;;;2.22;1.30;;;;;;;16.82;71.76;96687.66;4950794;29;20048;-79
2022/06/07 06:11:15;;;;;;;2.28;1.10;;;;;;;16.85;72.58;96687.19;4951237;28;20060;-79
2022/06/07 06:13:43;;;;;;;1.85;1.20;;;;;;;16.85;70.64;96691.66;4944189;29;20040;-79
2022/06/07 06:16:15;;;;;;;2.30;1.00;;;;;;;16.86;71.69;96695.94;4942428;29;20048;-78
2022/06/07 06:18:43;;;;;;;1.40;0.98;;;;;;;16.81;69.47;96685.22;4947076;29;20059;-78
2022/06/07 06:21:10;;;;;;;0.88;0.80;;;;;;;16.75;69.18;96686.91;4947664;29;20075;-79
2022/06/07 06:23:38;;;;;;;2.53;0.88;;;;;;;16.75;71.41;96686.06;4948477;28;20052;-79
2022/06/07 06:26:08;;;;;;;1.65;0.88;;;;;;;16.80;72.14;96686.25;4938402;29;20032;-79
2022/06/07 06:28:37;;;;;;;2.75;0.90;;;;;;;16.80;67.19;96692.34;4947506;29;20119;-79
2022/06/07 06:31:06;;;;;;;0.80;0.80;;;;;;;16.81;69.27;96696.56;4936248;29;20063;-79
2022/06/07 06:33:37;;;;;;;1.80;1.02;;;;;;;16.83;69.47;96697.16;4953347;28;20112;-77
2022/06/07 06:36:06;;;;;;;1.52;0.93;;;;;;;16.83;67.32;96697.16;4954868;28;20059;-78
2022/06/07 06:38:34;;;;;;;2.10;0.90;;;;;;;16.85;69.47;96692.47;4942003;29;20032;-79
2022/06/07 06:41:08;;;;;;;3.53;0.70;;;;;;;16.88;68.94;96697.31;4956317;28;20048;-79
2022/06/07 06:43:38;;;;;;;1.65;0.90;;;;;;;16.94;70.20;96700.09;4952831;29;20056;-78
2022/06/07 06:46:06;;;;;;;1.27;0.90;;;;;;;17.00;69.48;96699.22;4958749;28;20067;-79
2022/06/07 06:48:34;;;;;;;3.92;1.23;;;;;;;16.98;64.76;96693.34;4958670;28;20039;-78
2022/06/07 06:51:05;;;;;;;2.70;0.85;;;;;;;16.96;66.17;96692.78;4947372;28;20029;-79
2022/06/07 06:53:34;;;;;;;0.80;0.80;;;;;;;16.99;67.82;96684.41;4942349;29;20032;-79
2022/06/07 06:56:02;;;;;;;1.63;0.90;;;;;;;16.99;66.27;96687.06;4950862;28;20043;-78
2022/06/07 06:58:30;;;;;;;3.05;0.93;;;;;;;16.98;66.24;96693.34;4945480;29;20040;-78
2022/06/07 07:01:05;;;;;;;1.02;1.02;;;;;;;17.00;63.54;96696.59;4947149;28;20092;-78
2022/06/07 07:03:34;;;;;;;2.47;0.80;;;;;;;17.04;66.26;96689.84;4945934;29;20055;-79
2022/06/07 07:06:02;;;;;;;1.70;0.77;;;;;;;17.04;65.71;96697.75;4937663;29;20049;-78
2022/06/07 07:08:30;;;;;;;4.57;0.90;;;;;;;17.08;67.97;96698.94;4956316;28;20079;-79
2022/06/07 07:11:07;;;;;;;1.27;0.88;;;;;;;17.14;66.70;96705.94;4947196;28;20104;-79
2022/06/07 07:13:35;;;;;;;1.40;0.80;;;;;;;17.18;67.61;96712.38;4953708;28;20059;-78
2022/06/07 07:16:07;;;;;;;1.63;0.65;;;;;;;17.23;67.58;96709.06;4956444;28;20068;-79
2022/06/07 07:18:36;;;;;;;0.85;0.82;;;;;;;17.25;67.76;96707.03;4956447;28;20051;-79
2022/06/07 07:21:05;;;;;;;1.30;1.02;;;;;;;17.25;67.08;96707.03;4957038;28;20361;-78
2022/06/07 07:23:33;;;;;;;1.55;0.98;;;;;;;17.27;64.62;96711.06;4955943;28;20072;-79
2022/06/07 07:26:02;;;;;;;3.38;1.15;;;;;;;17.31;64.37;96714.06;4944433;29;20086;-78
2022/06/07 07:28:30;;;;;;;2.47;0.90;;;;;;;17.36;64.28;96718.66;4958060;28;20082;-78
2022/06/07 07:30:58;;;;;;;4.88;1.02;;;;;;;17.41;65.73;96716.97;4957580;28;20039;-77
2022/06/07 07:33:35;;;;;;;0.95;0.82;;;;;;;17.49;66.19;96718.50;4942131;29;20070;-79
2022/06/07 07:36:05;;;;;;;1.25;1.13;;;;;;;17.54;66.89;96713.38;4946063;28;20044;-79
2022/06/07 07:38:33;;;;;;;1.00;0.77;;;;;;;17.61;66.08;96715.94;4957316;28;20044;-79
2022/06/07 07:41:01;;;;;;;1.30;0.90;;;;;;;17.64;65.41;96713.63;4955184;28;20055;-78
2022/06/07 07:43:28;;;;;;;3.22;1.45;;;;;;;17.69;65.70;96713.78;4959046;28;20115;-79
2022/06/07 07:45:57;;;;;;;1.98;1.00;;;;;;;17.73;65.85;96714.13;4951239;28;20158;-79
2022/06/07 07:48:25;;;;;;;9.68;1.20;;;;;;;17.78;65.09;96716.13;4939326;28;20036;-79
2022/06/07 07:51:00;;;;;;;1.42;0.98;;;;;;;17.82;63.73;96718.09;4945313;29;20095;-79
2022/06/07 07:53:28;;;;;;;1.85;1.08;;;;;;;17.84;63.46;96710.78;4948827;28;20048;-78
2022/06/07 07:55:56;;;;;;;1.15;1.00;;;;;;;17.87;63.44;96717.44;4944073;29;20149;-79
2022/06/07 07:58:23;;;;;;;1.88;0.77;;;;;;;17.88;64.56;96708.47;4944460;29;20044;-79
2022/06/07 08:00:51;;;;;;;3.35;0.90;;;;;;;17.91;63.32;96711.47;4954728;28;20059;-78
2022/06/07 08:03:20;;;;;;;1.30;1.20;;;;;;;17.92;62.35;96707.78;4931290;29;20092;-79
2022/06/07 08:06:05;;;;;;;1.48;1.10;;;;;;;17.96;63.65;96712.63;4942889;29;20107;-78
2022/06/07 08:08:33;;;;;;;2.42;0.85;;;;;;;17.99;64.26;96707.69;4942421;29;20178;-79
2022/06/07 08:11:02;;;;;;;3.13;0.90;;;;;;;18.04;63.37;96710.47;4931503;29;20052;-79
2022/06/07 10:03:55;;;;;;;0.90;0.75;;;;;;;19.73;54.63;96645.31;5303844;23;20043;-80
2022/06/07 10:06:32;;;;;;;2.15;0.70;;;;;;;19.76;54.86;96647.47;4962478;28;20035;-79
2022/06/07 10:09:24;;;;;;;1.13;0.50;;;;;;;19.79;53.12;96634.81;4962089;29;20059;-78
2022/06/07 10:12:10;;;;;;;2.55;0.60;;;;;;;19.83;53.06;96633.28;4961244;28;20067;-79
2022/06/07 10:14:57;;;;;;;1.95;0.80;;;;;;;19.85;52.64;96626.72;4961995;28;20103;-78
2022/06/07 10:17:48;;;;;;;1.95;0.52;;;;;;;19.90;52.01;96620.72;4956517;28;20043;-79
2022/06/07 10:23:33;;;;;;;1.25;0.57;;;;;;;20.10;54.12;96623.69;3298536;26;20055;-79
2022/06/07 10:26:34;;;;;;;1.90;0.80;;;;;;;20.15;51.73;96617.66;4919371;29;20064;-81
2022/06/07 10:29:20;;;;;;;0.88;0.50;;;;;;;20.19;51.94;96620.63;4952185;28;20052;-82
2022/06/07 10:37:23;;;;;;;1.17;0.68;;;;;;;20.36;50.84;96613.47;4095396;23;20055;-79
2022/06/07 10:42:40;;;;;;;1.55;0.70;;;;;;;20.41;50.28;96610.06;4954787;23;20060;-79
2022/06/07 10:45:19;;;;;;;1.02;0.63;;;;;;;20.49;48.46;96601.72;4923749;29;20045;-79
2022/06/07 10:50:53;;;;;;;0.43;0.43;;;;;;;20.63;47.28;96602.19;4929995;29;20036;-79
2022/06/07 10:53:27;;;;;;;2.35;0.55;;;;;;;20.66;47.69;96607.81;4942400;29;20064;-80
2022/06/07 10:56:08;;;;;;;2.10;0.80;;;;;;;20.68;47.60;96604.88;4942652;29;20502;-80
2022/06/07 10:58:46;;;;;;;0.85;0.60;;;;;;;20.72;49.18;96613.97;4923004;29;20036;-79
2022/06/07 11:01:18;;;;;;;1.42;0.45;;;;;;;20.73;48.28;96599.66;4939050;29;20035;-79
2022/06/07 11:03:57;;;;;;;2.05;0.70;;;;;;;20.80;47.96;96602.13;4941612;29;20084;-79
2022/06/07 11:09:35;;;;;;;1.27;0.63;;;;;;;20.91;48.27;96588.75;4941412;29;20048;-79
2022/06/07 11:12:13;;;;;;;3.63;0.60;;;;;;;20.96;47.70;96590.66;4923729;29;20044;-79
2022/06/07 11:15:12;;;;;;;1.30;0.40;;;;;;;20.97;48.88;96593.06;4923773;29;20063;-80
2022/06/07 11:17:52;;;;;;;0.73;0.57;;;;;;;20.99;48.31;96593.63;4928239;29;20051;-78
2022/06/07 11:20:37;;;;;;;2.35;0.88;;;;;;;21.02;48.41;96588.88;4931863;29;20040;-81
2022/06/07 11:23:15;;;;;;;0.98;0.55;;;;;;;21.05;47.63;96588.34;4942046;29;20052;-79
2022/06/07 11:26:02;;;;;;;2.38;0.60;;;;;;;21.05;48.47;96583.84;4931186;29;20060;-79
2022/06/07 11:28:34;;;;;;;0.65;0.45;;;;;;;21.07;48.14;96586.25;4922840;29;20039;-78
2022/06/07 11:31:29;;;;;;;1.33;0.57;;;;;;;21.07;48.74;96587.06;4921512;29;20056;-78
2022/06/07 11:34:12;;;;;;;3.45;0.60;;;;;;;21.07;47.44;96584.41;4934808;29;20062;-79
2022/06/07 11:36:41;;;;;;;0.40;0.40;;;;;;;21.09;48.98;96586.81;4941382;29;20040;-78
2022/06/07 11:39:31;;;;;;;1.52;0.45;;;;;;;21.09;48.57;96586.81;4939195;29;20072;-78
2022/06/07 11:42:29;;;;;;;0.93;0.47;;;;;;;21.06;47.27;96589.97;4940895;29;20060;-79
2022/06/07 11:45:24;;;;;;;1.08;0.55;;;;;;;21.08;47.03;96588.69;4934571;29;20056;-78
2022/06/07 11:48:13;;;;;;;1.13;0.52;;;;;;;21.10;47.05;96578.63;4930699;29;20053;-79
2022/06/07 11:50:46;;;;;;;1.95;0.50;;;;;;;21.12;46.35;96575.69;4922309;29;20047;-79
2022/06/07 11:53:28;;;;;;;0.40;0.40;;;;;;;21.17;47.70;96581.06;4927767;29;20064;-80
2022/06/07 11:56:14;;;;;;;0.85;0.40;;;;;;;21.20;47.03;96577.91;4932635;29;20081;-78
2022/06/07 11:59:36;;;;;;;0.38;0.38;;;;;;;21.22;47.10;96573.16;4922144;29;20036;-80
2022/06/07 12:02:31;;;;;;;1.35;0.70;;;;;;;21.23;46.47;96563.34;4907151;29;20048;-81
2022/06/07 12:05:19;;;;;;;;;;;;;;;21.27;47.55;96562.59;4930872;29;20095;-80
2022/06/07 12:08:03;;;;;;;0.88;0.40;;;;;;;21.33;47.48;96564.25;4925717;29;19930;-79
2022/06/07 12:10:37;;;;;;;1.45;0.50;;;;;;;21.36;47.04;96563.75;4922326;29;20060;-79
2022/06/07 12:13:16;;;;;;;1.08;0.13;;;;;;;21.43;45.49;96558.28;4941180;29;20032;-79
2022/06/07 12:15:51;;;;;;;1.38;0.40;;;;;;;21.48;46.06;96555.66;4941189;29;20062;-79
2022/06/07 12:18:26;;;;;;;0.20;0.20;;;;;;;21.54;44.58;96559.16;4938461;29;20042;-79
2022/06/07 12:21:03;;;;;;;1.88;0.40;;;;;;;21.55;43.90;96556.25;4921353;29;20067;-80
2022/06/07 12:23:35;;;;;;;0.63;0.40;;;;;;;21.57;44.54;96542.72;4921099;29;20112;-78
2022/06/07 12:26:10;;;;;;;0.68;0.68;;;;;;;21.62;44.84;96549.94;4921809;29;20084;-79
2022/06/07 12:28:55;;;;;;;1.58;0.35;;;;;;;21.65;43.68;96544.13;4934378;29;20044;-79
2022/06/07 12:31:37;;;;;;;0.80;0.40;;;;;;;21.68;45.35;96541.75;4940369;29;20052;-80
2022/06/07 12:34:18;;;;;;;0.60;0.60;;;;;;;21.72;45.52;96545.50;4940473;29;20050;-79
2022/06/07 12:36:58;;;;;;;1.63;0.50;;;;;;;21.76;45.00;96551.91;4940889;29;20093;-80
2022/06/07 12:39:41;;;;;;;1.42;0.50;;;;;;;21.78;45.56;96547.16;4940670;29;20048;-78
2022/06/07 12:42:19;;;;;;;2.97;0.50;;;;;;;21.80;44.70;96531.75;4924473;29;20036;-79
2022/06/07 12:45:04;;;;;;;1.92;0.40;;;;;;;21.84;45.06;96541.84;4940547;29;20055;-79
2022/06/07 12:47:36;;;;;;;0.95;0.60;;;;;;;21.86;45.94;96535.22;4940183;29;20116;-79
2022/06/07 12:50:20;;;;;;;1.23;0.57;;;;;;;21.88;45.02;96537.63;4940256;29;20079;-80
2022/06/07 12:52:56;;;;;;;0.40;0.40;;;;;;;21.86;44.08;96535.22;4940279;29;20036;-79
2022/06/07 12:55:33;;;;;;;1.40;0.77;;;;;;;21.86;44.61;96534.44;4940455;29;20056;-80
2022/06/07 12:58:06;;;;;;;1.27;0.65;;;;;;;21.87;44.74;96530.75;4941033;29;20040;-82
2022/06/07 13:05:58;;;;;;;1.38;0.40;;;;;;;21.97;43.61;96533.44;5055656;23;20051;-78
2022/06/07 13:08:37;;;;;;;1.33;0.50;;;;;;;22.00;43.64;96532.94;4959588;28;20075;-79
2022/06/07 13:11:13;;;;;;;1.05;0.43;;;;;;;22.03;45.28;96535.09;4959969;28;20047;-79
2022/06/07 13:13:48;;;;;;;0.40;0.40;;;;;;;22.09;44.89;96522.66;5014354;23;20186;-81
2022/06/07 13:16:36;;;;;;;1.48;0.40;;;;;;;22.12;45.89;96533.53;5120463;23;20039;-79
2022/06/07 13:19:25;;;;;;;2.13;0.55;;;;;;;22.11;44.28;96531.94;4940569;29;20036;-79
2022/06/07 13:22:01;;;;;;;0.55;0.40;;;;;;;22.11;44.26;96521.31;4936143;29;20048;-79
2022/06/07 13:24:43;;;;;;;0.40;0.40;;;;;;;22.12;45.21;96527.44;4923654;29;20055;-80
2022/06/07 13:27:43;;;;;;;3.00;0.38;;;;;;;22.12;45.18;96525.56;4940389;29;20052;-79
2022/06/07 13:30:17;;;;;;;1.42;0.45;;;;;;;22.11;45.46;96528.50;4921978;29;20053;-79
2022/06/07 13:32:46;;;;;;;0.85;0.43;;;;;;;22.07;45.70;96525.56;4926539;29;20059;-77
2022/06/07 13:35:22;;;;;;;1.67;0.50;;;;;;;22.02;45.02;96515.69;4944223;29;20036;-80
2022/06/07 13:38:04;;;;;;;1.98;0.70;;;;;;;22.00;45.78;96519.66;4943881;29;20048;-78
2022/06/07 13:40:35;;;;;;;1.23;0.60;;;;;;;21.98;45.00;96516.47;4944193;29;20080;-79
2022/06/07 13:43:22;;;;;;;0.70;0.67;;;;;;;21.94;45.26;96518.03;4943890;29;20048;-79
2022/06/07 13:46:03;;;;;;;2.50;0.50;;;;;;;21.89;46.47;96513.50;4943638;29;20052;-79
2022/06/07 13:54:21;;;;;;;1.75;0.57;;;;;;;21.82;44.60;96512.91;4944122;29;20048;-79
2022/06/07 13:56:52;;;;;;;0.82;0.52;;;;;;;21.78;44.53;96517.94;4928285;29;20104;-81
2022/06/07 13:59:25;;;;;;;0.82;0.40;;;;;;;21.78;45.01;96511.84;4944146;29;20032;-79
2022/06/07 14:07:26;;;;;;;0.75;0.60;;;;;;;21.79;45.34;96508.91;5177428;23;20051;-80
2022/06/07 14:10:00;;;;;;;1.42;0.47;;;;;;;21.79;44.91;96513.41;4963558;28;20040;-80
2022/06/07 14:15:14;;;;;;;1.92;0.40;;;;;;;21.77;46.14;96511.00;4124501;23;20050;-82
2022/06/07 14:17:45;;;;;;;0.63;0.60;;;;;;;21.77;45.32;96510.22;5067102;23;20070;-79
2022/06/07 14:20:19;;;;;;;2.60;0.55;;;;;;;21.75;45.58;96507.03;4962935;28;20058;-81
2022/06/07 14:22:51;;;;;;;0.80;0.30;;;;;;;21.76;45.93;96504.13;5000383;23;20075;-79
2022/06/07 14:25:23;;;;;;;1.10;0.40;;;;;;;21.77;43.96;96500.38;4943632;29;20043;-79
2022/06/07 14:30:51;;;;;;;0.90;0.40;;;;;;;21.76;44.15;96498.81;4963300;23;20064;-81
2022/06/07 14:33:32;;;;;;;0.65;0.30;;;;;;;21.76;43.86;96498.81;4962274;28;20040;-79
2022/06/07 14:36:06;;;;;;;1.80;0.60;;;;;;;21.77;43.85;96495.09;4958810;28;20043;-79
2022/06/07 14:38:35;;;;;;;0.68;0.35;;;;;;;21.79;44.78;96492.19;4927696;29;20027;-80